Time;durP1;ratioP1;P1;durP2;ratioP2;P2;SDS_P1;SDS_P2;PMS_P1;PMS_P2;Temp;Humidity;BMP_temperature;BMP_pressure;BME280_temperature;BME280_humidity;BME280_pressure;Samples;Min_cycle;Max_cycle;Signal;HPM_P1;HPM_P2
2021/05/14 00:02:11;;;;;;;3.13;1.85;;;13.40;90.50;;;;;;3541005;40;20030;-62
2021/05/14 00:04:37;;;;;;;2.13;1.92;;;13.40;90.50;;;;;;3543142;40;20120;-62
2021/05/14 00:07:03;;;;;;;2.67;2.20;;;13.50;90.50;;;;;;3544836;40;20025;-62
2021/05/14 00:09:28;;;;;;;2.00;1.80;;;13.50;90.60;;;;;;3546585;40;20045;-62
2021/05/14 00:11:54;;;;;;;2.45;2.08;;;13.50;90.30;;;;;;3548633;40;20034;-63
2021/05/14 00:14:20;;;;;;;2.30;2.10;;;13.50;90.40;;;;;;3547524;40;20414;-63
2021/05/14 00:16:45;;;;;;;6.15;2.08;;;13.50;90.30;;;;;;3547561;40;20042;-63
2021/05/14 00:19:11;;;;;;;2.10;1.90;;;13.40;90.40;;;;;;3545103;40;20034;-62
2021/05/14 00:21:37;;;;;;;2.55;2.20;;;13.40;90.30;;;;;;3543285;40;20062;-62
2021/05/14 00:24:03;;;;;;;2.17;1.98;;;13.40;90.40;;;;;;3540991;40;20026;-62
2021/05/14 00:26:29;;;;;;;2.30;2.10;;;13.40;90.40;;;;;;3531621;40;20058;-62
2021/05/14 00:28:55;;;;;;;2.05;1.85;;;13.40;90.50;;;;;;3541945;40;20042;-62
2021/05/14 00:31:21;;;;;;;1.95;1.80;;;13.30;90.10;;;;;;3543803;40;20030;-62
2021/05/14 00:33:46;;;;;;;1.98;1.80;;;13.30;90.30;;;;;;3545959;40;20022;-62
2021/05/14 00:36:12;;;;;;;2.90;1.80;;;13.30;90.50;;;;;;3547613;40;20042;-62
2021/05/14 00:38:38;;;;;;;2.00;1.80;;;13.30;90.60;;;;;;3547924;40;20336;-63
2021/05/14 00:41:04;;;;;;;2.88;1.80;;;13.30;90.60;;;;;;3547298;40;20034;-62
2021/05/14 00:43:31;;;;;;;1.60;1.50;;;13.30;90.40;;;;;;3545751;40;20463;-62
2021/05/14 00:45:58;;;;;;;2.67;2.25;;;13.30;90.40;;;;;;3546981;40;20396;-63
2021/05/14 00:48:23;;;;;;;2.42;2.08;;;13.30;90.50;;;;;;3541862;40;20050;-62
2021/05/14 00:50:49;;;;;;;2.10;1.90;;;13.30;90.30;;;;;;3540051;40;20023;-63
2021/05/14 00:53:15;;;;;;;3.22;1.70;;;13.40;90.50;;;;;;3541140;40;20038;-62
2021/05/14 00:55:40;;;;;;;2.30;2.08;;;13.40;90.50;;;;;;3544432;40;20838;-62
2021/05/14 00:58:06;;;;;;;2.72;2.15;;;13.30;90.40;;;;;;3546042;40;20037;-62
2021/05/14 01:00:32;;;;;;;2.53;2.25;;;13.40;90.40;;;;;;3547958;40;20378;-62
2021/05/14 01:02:57;;;;;;;2.10;1.90;;;13.40;90.30;;;;;;3549989;40;20042;-63
2021/05/14 01:05:24;;;;;;;2.38;2.17;;;13.40;90.30;;;;;;3549016;40;20038;-62
2021/05/14 01:07:54;;;;;;;2.05;1.95;;;13.40;90.30;;;;;;3546775;40;20026;-63
2021/05/14 01:10:22;;;;;;;3.05;2.20;;;13.40;90.30;;;;;;3544400;40;20033;-62
2021/05/14 01:12:48;;;;;;;2.90;2.08;;;13.30;90.30;;;;;;3546888;40;20023;-62
2021/05/14 01:15:14;;;;;;;2.40;2.13;;;13.40;90.30;;;;;;3549267;40;20190;-62
2021/05/14 01:17:40;;;;;;;2.70;2.47;;;13.40;90.40;;;;;;3546267;40;20053;-62
2021/05/14 01:20:07;;;;;;;2.95;2.40;;;13.30;90.30;;;;;;3543009;40;20123;-62
2021/05/14 01:22:32;;;;;;;2.67;2.10;;;13.40;90.40;;;;;;3545643;40;20077;-62
2021/05/14 01:24:58;;;;;;;2.50;2.30;;;13.40;90.40;;;;;;3545838;40;20397;-64
2021/05/14 01:27:24;;;;;;;2.83;2.33;;;13.40;90.40;;;;;;3548986;40;20046;-62
2021/05/14 01:29:50;;;;;;;2.50;2.30;;;13.30;90.30;;;;;;3548031;40;20029;-62
2021/05/14 01:32:16;;;;;;;2.53;2.33;;;13.30;90.40;;;;;;3546682;40;20098;-62
2021/05/14 01:34:42;;;;;;;2.60;2.40;;;13.30;90.40;;;;;;3544916;40;20045;-62
2021/05/14 01:37:08;;;;;;;3.03;2.65;;;13.30;90.40;;;;;;3543048;40;20030;-62
2021/05/14 01:39:34;;;;;;;2.90;2.60;;;13.30;90.50;;;;;;3540842;40;20026;-62
2021/05/14 01:42:01;;;;;;;5.43;3.15;;;13.30;90.40;;;;;;3540390;40;20336;-62
2021/05/14 01:44:27;;;;;;;3.60;2.88;;;13.30;90.40;;;;;;3542463;40;20041;-62
2021/05/14 01:46:52;;;;;;;4.25;3.22;;;13.30;90.30;;;;;;3544924;40;20050;-62
2021/05/14 01:49:18;;;;;;;3.53;3.03;;;13.30;90.50;;;;;;3544331;40;20025;-62
2021/05/14 01:51:44;;;;;;;3.10;2.78;;;13.30;90.20;;;;;;3545375;40;20049;-62
2021/05/14 01:54:10;;;;;;;3.65;2.83;;;13.20;90.30;;;;;;3541290;40;20039;-68
2021/05/14 01:56:36;;;;;;;3.33;2.95;;;13.20;90.40;;;;;;3542590;40;20042;-67
2021/05/14 01:59:02;;;;;;;3.47;2.78;;;13.30;90.50;;;;;;3544414;40;20607;-68
2021/05/14 02:01:28;;;;;;;3.22;2.92;;;13.30;90.40;;;;;;3546587;40;20089;-67
2021/05/14 02:03:53;;;;;;;3.78;3.28;;;13.30;90.40;;;;;;3549110;40;20124;-68
2021/05/14 02:06:19;;;;;;;3.92;3.55;;;13.30;90.50;;;;;;3549251;40;20040;-68
2021/05/14 02:08:45;;;;;;;3.78;2.92;;;13.30;90.40;;;;;;3549319;40;20045;-67
2021/05/14 02:11:11;;;;;;;3.17;2.80;;;13.30;90.40;;;;;;3546853;40;20080;-67
2021/05/14 02:13:41;;;;;;;2.85;2.58;;;13.20;90.30;;;;;;3543880;40;20026;-67
2021/05/14 02:16:08;;;;;;;3.40;2.92;;;13.20;90.30;;;;;;3543459;40;20105;-68
2021/05/14 02:18:35;;;;;;;3.65;2.83;;;13.20;90.30;;;;;;3547339;40;20030;-67
2021/05/14 02:21:01;;;;;;;3.72;2.88;;;13.20;90.40;;;;;;3549433;40;20038;-67
2021/05/14 02:23:27;;;;;;;4.78;2.75;;;13.10;90.20;;;;;;3548094;40;20575;-68
2021/05/14 02:25:54;;;;;;;2.25;2.05;;;13.00;90.40;;;;;;3545811;40;20833;-68
2021/05/14 02:28:20;;;;;;;3.75;2.67;;;13.10;90.60;;;;;;3544441;40;20038;-69
2021/05/14 02:30:46;;;;;;;2.38;2.10;;;13.00;90.70;;;;;;3543166;40;20116;-68
2021/05/14 02:33:11;;;;;;;2.35;2.08;;;13.00;90.70;;;;;;3540024;40;20038;-67
2021/05/14 02:35:37;;;;;;;3.53;3.20;;;13.00;90.60;;;;;;3542554;40;20066;-67
2021/05/14 02:38:04;;;;;;;5.97;2.42;;;13.10;90.70;;;;;;3545747;40;20584;-67
2021/05/14 02:40:31;;;;;;;2.35;2.10;;;13.00;90.40;;;;;;3543226;40;20098;-69
2021/05/14 02:42:56;;;;;;;2.70;1.90;;;13.00;90.50;;;;;;3542463;40;20027;-67
2021/05/14 02:45:23;;;;;;;2.20;2.00;;;13.00;90.60;;;;;;3544778;40;20759;-73
2021/05/14 02:47:49;;;;;;;2.42;1.90;;;13.00;90.60;;;;;;3544464;40;20038;-68
2021/05/14 02:50:15;;;;;;;3.03;2.30;;;13.00;90.50;;;;;;3544863;40;20031;-67
2021/05/14 02:52:41;;;;;;;3.80;3.13;;;13.00;90.50;;;;;;3546736;40;20758;-67
2021/05/14 02:55:08;;;;;;;3.90;2.42;;;13.00;90.60;;;;;;3548212;40;20030;-67
2021/05/14 02:57:34;;;;;;;3.40;1.95;;;13.00;90.50;;;;;;3541779;40;20034;-68
2021/05/14 03:00:01;;;;;;;3.58;2.30;;;13.00;90.40;;;;;;3541526;40;20029;-67
2021/05/14 03:02:26;;;;;;;2.25;1.80;;;13.00;90.60;;;;;;3545257;40;20046;-68
2021/05/14 03:04:52;;;;;;;3.55;2.00;;;13.10;90.40;;;;;;3546038;40;20070;-67
2021/05/14 03:07:20;;;;;;;1.90;1.80;;;13.00;90.30;;;;;;3543457;40;20073;-67
2021/05/14 03:09:45;;;;;;;2.70;2.50;;;13.00;90.30;;;;;;3548273;40;20116;-67
2021/05/14 03:12:12;;;;;;;2.88;2.50;;;13.10;90.30;;;;;;3546619;40;20053;-71
2021/05/14 03:14:38;;;;;;;3.53;2.42;;;13.10;90.40;;;;;;3545131;40;20072;-68
2021/05/14 03:17:04;;;;;;;4.50;2.58;;;13.10;90.20;;;;;;3543598;40;20042;-67
2021/05/14 03:19:29;;;;;;;5.32;3.67;;;13.10;90.30;;;;;;3544950;40;20042;-68
2021/05/14 03:21:55;;;;;;;7.30;4.85;;;13.10;90.30;;;;;;3543136;40;20045;-66
2021/05/14 03:24:21;;;;;;;8.27;4.82;;;13.10;90.30;;;;;;3546592;40;20030;-66
2021/05/14 03:26:49;;;;;;;4.38;3.22;;;13.10;90.20;;;;;;3544772;40;20030;-68
2021/05/14 03:29:15;;;;;;;4.88;3.20;;;13.10;90.00;;;;;;3545443;40;20026;-67
2021/05/14 03:31:40;;;;;;;4.15;3.58;;;13.10;90.10;;;;;;3547456;40;20058;-68
2021/05/14 03:34:06;;;;;;;4.07;3.45;;;13.10;90.10;;;;;;3545204;40;20087;-67
2021/05/14 03:36:33;;;;;;;6.18;4.03;;;13.10;90.10;;;;;;3547042;40;20094;-67
2021/05/14 03:38:59;;;;;;;5.30;3.45;;;13.10;90.10;;;;;;3544634;40;20051;-67
2021/05/14 03:41:33;;;;;;;4.95;3.92;;;13.10;90.10;;;;;;3544980;40;20038;-67
2021/05/14 03:43:59;;;;;;;6.53;4.07;;;13.10;90.20;;;;;;3546228;40;20030;-67
2021/05/14 03:46:28;;;;;;;4.10;3.70;;;13.10;90.10;;;;;;3539789;40;20045;-67
2021/05/14 03:48:55;;;;;;;4.97;4.47;;;13.10;90.20;;;;;;3546114;40;20042;-67
2021/05/14 03:51:20;;;;;;;5.35;4.60;;;13.10;90.10;;;;;;3545167;40;20458;-66
2021/05/14 03:53:46;;;;;;;5.35;4.25;;;13.20;90.10;;;;;;3545028;40;20041;-67
2021/05/14 03:56:11;;;;;;;5.35;4.18;;;13.20;89.90;;;;;;3541058;40;20030;-67
2021/05/14 03:58:37;;;;;;;5.50;4.78;;;13.10;89.90;;;;;;3539660;40;20026;-67
2021/05/14 04:01:03;;;;;;;5.72;4.93;;;13.10;90.00;;;;;;3540074;40;20037;-67
2021/05/14 04:03:29;;;;;;;7.25;5.20;;;13.20;90.00;;;;;;3545595;40;20287;-66
2021/05/14 04:05:55;;;;;;;6.72;6.05;;;13.10;90.00;;;;;;3544520;40;20033;-67
2021/05/14 04:08:21;;;;;;;9.80;6.30;;;13.20;89.90;;;;;;3542800;40;20038;-67
2021/05/14 04:11:24;;;;;;;8.75;6.93;;;13.20;90.00;;;;;;3547630;40;20018;-67
2021/05/14 04:16:34;;;;;;;10.20;7.22;;;13.20;90.00;;;;;;3545198;40;20654;-67
2021/05/14 04:18:59;;;;;;;11.27;7.25;;;13.20;90.00;;;;;;3544980;40;20026;-67
2021/05/14 04:21:27;;;;;;;10.43;7.43;;;13.10;90.00;;;;;;3543685;40;20066;-67
2021/05/14 04:23:52;;;;;;;11.50;6.85;;;13.10;89.90;;;;;;3544156;40;20042;-67
2021/05/14 04:26:18;;;;;;;9.98;7.60;;;13.10;90.00;;;;;;3544985;40;20037;-66
2021/05/14 04:28:44;;;;;;;9.70;6.45;;;13.10;89.80;;;;;;3546832;40;20465;-66
2021/05/14 04:31:10;;;;;;;8.60;6.20;;;13.10;89.40;;;;;;3545074;40;20030;-66
2021/05/14 04:33:35;;;;;;;9.75;6.15;;;13.10;89.60;;;;;;3544639;40;20656;-66
2021/05/14 04:36:03;;;;;;;8.13;6.22;;;13.10;89.40;;;;;;3549450;40;20128;-66
2021/05/14 04:38:28;;;;;;;9.57;6.60;;;13.10;89.50;;;;;;3547866;40;20901;-69
2021/05/14 04:40:54;;;;;;;9.63;6.75;;;13.10;89.50;;;;;;3547240;40;20058;-69
2021/05/14 04:43:21;;;;;;;6.70;5.82;;;13.10;89.30;;;;;;3545709;40;20026;-70
2021/05/14 04:45:47;;;;;;;8.45;6.55;;;13.10;89.40;;;;;;3544281;40;20152;-68
2021/05/14 04:48:12;;;;;;;8.80;6.95;;;13.00;89.80;;;;;;3542637;40;20580;-68
2021/05/14 04:50:38;;;;;;;10.73;7.53;;;13.00;90.00;;;;;;3548352;40;20308;-70
2021/05/14 04:53:13;;;;;;;9.30;7.53;;;12.90;90.00;;;;;;3546704;40;20025;-69
2021/05/14 04:55:39;;;;;;;8.77;7.57;;;12.90;90.10;;;;;;3544651;40;20744;-68
2021/05/14 04:58:04;;;;;;;7.38;6.38;;;12.90;90.30;;;;;;3544727;40;20031;-69
2021/05/14 05:00:31;;;;;;;9.75;7.10;;;13.00;90.30;;;;;;3545231;40;20026;-69
2021/05/14 05:02:58;;;;;;;8.70;5.90;;;13.00;90.40;;;;;;3540996;40;20393;-69
2021/05/14 05:05:24;;;;;;;8.15;6.45;;;13.00;90.40;;;;;;3547801;40;20038;-68
2021/05/14 05:07:50;;;;;;;8.82;6.13;;;13.10;90.30;;;;;;3545343;40;20034;-69
2021/05/14 05:10:16;;;;;;;8.32;6.70;;;13.20;90.20;;;;;;3547246;40;20030;-68
2021/05/14 05:12:42;;;;;;;7.85;6.15;;;13.20;90.20;;;;;;3542063;40;20297;-68
2021/05/14 05:15:10;;;;;;;7.75;6.32;;;13.20;90.00;;;;;;3541479;40;20042;-68
2021/05/14 05:17:36;;;;;;;7.90;6.00;;;13.20;90.00;;;;;;3546285;40;20042;-68
2021/05/14 05:20:03;;;;;;;9.25;6.45;;;13.20;89.60;;;;;;3545610;40;20035;-69
2021/05/14 05:22:28;;;;;;;8.00;5.65;;;13.10;89.80;;;;;;3546950;40;20431;-68
2021/05/14 05:24:54;;;;;;;8.35;6.18;;;13.00;90.10;;;;;;3545380;40;20037;-68
2021/05/14 05:27:20;;;;;;;9.45;6.45;;;13.00;90.20;;;;;;3548016;40;20026;-69
2021/05/14 05:29:45;;;;;;;7.72;6.05;;;13.10;90.10;;;;;;3547587;40;20022;-69
2021/05/14 05:32:11;;;;;;;8.75;6.57;;;13.10;90.30;;;;;;3548773;40;20025;-69
2021/05/14 05:34:37;;;;;;;9.00;6.50;;;13.10;89.40;;;;;;3547171;40;20062;-69
2021/05/14 05:37:03;;;;;;;6.57;5.65;;;13.10;89.80;;;;;;3548624;40;20135;-69
2021/05/14 05:39:29;;;;;;;8.30;5.80;;;13.10;90.10;;;;;;3544134;40;20160;-69
2021/05/14 05:41:55;;;;;;;6.20;5.32;;;13.10;90.10;;;;;;3540786;40;20754;-68
2021/05/14 05:44:20;;;;;;;7.22;6.30;;;13.20;90.10;;;;;;3545384;40;20018;-69
2021/05/14 05:46:46;;;;;;;9.32;6.22;;;13.20;90.10;;;;;;3547381;40;20038;-68
2021/05/14 05:49:12;;;;;;;6.03;4.90;;;13.30;90.00;;;;;;3546239;40;20042;-69
2021/05/14 05:51:38;;;;;;;5.28;4.78;;;13.30;89.30;;;;;;3548581;40;20102;-69
2021/05/14 05:54:05;;;;;;;6.90;5.03;;;13.30;90.00;;;;;;3544371;40;20213;-68
2021/05/14 05:56:31;;;;;;;4.63;4.10;;;13.30;89.30;;;;;;3545317;40;20045;-68
2021/05/14 05:58:56;;;;;;;4.45;4.05;;;13.20;89.50;;;;;;3545046;40;20030;-68
2021/05/14 06:01:22;;;;;;;4.10;3.70;;;13.20;89.70;;;;;;3547559;40;20034;-69
2021/05/14 06:03:48;;;;;;;3.25;2.65;;;13.20;89.70;;;;;;3549886;40;20300;-66
2021/05/14 06:06:14;;;;;;;2.65;2.45;;;13.20;88.40;;;;;;3544969;40;20018;-66
2021/05/14 06:08:40;;;;;;;3.78;2.17;;;13.20;88.80;;;;;;3548142;40;20050;-66
2021/05/14 06:11:06;;;;;;;2.00;1.80;;;13.10;89.40;;;;;;3546035;40;20168;-66
2021/05/14 06:13:33;;;;;;;2.00;1.80;;;13.00;89.20;;;;;;3544856;40;20026;-66
2021/05/14 06:16:00;;;;;;;2.20;2.00;;;13.00;89.50;;;;;;3544773;40;20038;-65
2021/05/14 06:18:29;;;;;;;5.50;1.80;;;13.00;89.50;;;;;;3547317;40;20041;-67
2021/05/14 06:20:55;;;;;;;2.20;1.88;;;13.00;89.60;;;;;;3547388;40;20033;-69
2021/05/14 06:23:21;;;;;;;2.05;1.80;;;13.00;89.80;;;;;;3544971;40;20031;-68
2021/05/14 06:25:46;;;;;;;2.22;1.60;;;13.00;89.40;;;;;;3547495;40;20044;-68
2021/05/14 06:28:21;;;;;;;3.17;1.80;;;13.00;88.90;;;;;;3547182;40;20034;-69
2021/05/14 06:30:47;;;;;;;3.08;2.08;;;13.00;88.70;;;;;;3547599;40;20029;-69
2021/05/14 06:33:13;;;;;;;1.63;1.52;;;13.00;88.40;;;;;;3544339;40;20773;-68
2021/05/14 06:35:40;;;;;;;4.65;1.70;;;12.90;88.80;;;;;;3545498;40;20022;-67
2021/05/14 06:38:06;;;;;;;4.25;1.80;;;12.90;89.00;;;;;;3543056;40;20399;-68
2021/05/14 06:40:37;;;;;;;2.00;1.80;;;12.80;89.30;;;;;;3545538;40;20046;-68
2021/05/14 06:43:02;;;;;;;2.97;2.30;;;12.90;89.70;;;;;;3540141;40;20023;-68
2021/05/14 06:45:28;;;;;;;5.35;1.90;;;12.90;89.60;;;;;;3543855;40;20694;-68
2021/05/14 06:48:08;;;;;;;2.55;1.90;;;12.90;89.30;;;;;;3544499;40;20023;-69
2021/05/14 06:50:35;;;;;;;2.67;1.80;;;12.90;88.90;;;;;;3544613;40;20038;-69
2021/05/14 06:53:02;;;;;;;3.75;1.98;;;12.90;88.60;;;;;;3548929;40;20756;-68
2021/05/14 06:55:28;;;;;;;2.00;1.80;;;12.90;88.70;;;;;;3548259;40;20045;-69
2021/05/14 06:57:53;;;;;;;5.18;1.48;;;12.90;89.00;;;;;;3545337;40;20029;-68
2021/05/14 07:00:19;;;;;;;2.42;2.05;;;12.90;88.90;;;;;;3544966;40;20022;-66
2021/05/14 07:02:46;;;;;;;2.95;2.20;;;12.80;89.30;;;;;;3544830;40;20455;-65
2021/05/14 07:05:16;;;;;;;3.25;1.70;;;12.90;89.40;;;;;;3548461;40;20032;-68
2021/05/14 07:07:43;;;;;;;4.20;1.77;;;12.80;89.10;;;;;;3539859;40;20058;-69
2021/05/14 07:10:10;;;;;;;2.22;1.48;;;12.80;89.40;;;;;;3538842;40;20034;-68
2021/05/14 07:12:36;;;;;;;2.97;1.77;;;12.80;89.70;;;;;;3546082;40;20030;-68
2021/05/14 07:15:04;;;;;;;3.72;1.60;;;12.80;89.80;;;;;;3546208;40;20057;-69
2021/05/14 07:17:30;;;;;;;2.55;1.60;;;12.90;89.80;;;;;;3547361;40;20051;-68
2021/05/14 07:19:56;;;;;;;3.90;1.88;;;12.90;89.00;;;;;;3545663;40;20125;-69
2021/05/14 07:22:22;;;;;;;3.13;1.90;;;12.90;89.00;;;;;;3542225;40;20336;-69
2021/05/14 07:24:48;;;;;;;4.22;2.10;;;12.90;88.90;;;;;;3544593;40;20573;-67
2021/05/14 07:27:14;;;;;;;3.50;2.10;;;12.90;88.90;;;;;;3546004;40;20696;-68
2021/05/14 07:29:40;;;;;;;3.95;2.50;;;13.00;89.30;;;;;;3547786;40;20112;-68
2021/05/14 07:32:06;;;;;;;6.72;2.20;;;13.00;88.90;;;;;;3544896;40;20026;-69
2021/05/14 07:34:32;;;;;;;2.50;1.75;;;13.00;89.00;;;;;;3546524;40;20072;-69
2021/05/14 07:36:58;;;;;;;2.40;2.08;;;13.00;89.20;;;;;;3546839;40;20027;-70
2021/05/14 07:39:23;;;;;;;2.35;2.15;;;13.00;89.20;;;;;;3546849;40;20072;-70
2021/05/14 07:41:49;;;;;;;3.05;2.15;;;13.10;88.80;;;;;;3546891;40;20034;-69
2021/05/14 07:44:16;;;;;;;5.25;2.58;;;13.10;88.60;;;;;;3540358;40;20050;-68
2021/05/14 07:46:42;;;;;;;3.15;2.25;;;13.10;88.60;;;;;;3541499;40;20026;-69
2021/05/14 07:49:08;;;;;;;3.85;2.42;;;13.10;88.50;;;;;;3546337;40;20674;-68
2021/05/14 07:51:33;;;;;;;2.80;2.30;;;13.10;88.90;;;;;;3544241;40;20027;-68
2021/05/14 07:53:59;;;;;;;3.25;2.65;;;13.10;88.70;;;;;;3544057;40;20033;-68
2021/05/14 07:56:25;;;;;;;3.00;2.35;;;13.10;88.40;;;;;;3543288;40;20068;-67
2021/05/14 07:58:50;;;;;;;5.90;2.90;;;13.10;88.50;;;;;;3548016;40;20030;-68
2021/05/14 08:01:16;;;;;;;2.83;2.35;;;13.20;88.70;;;;;;3543270;40;20117;-68
2021/05/14 08:03:42;;;;;;;3.80;2.63;;;13.20;88.60;;;;;;3546233;40;20047;-68
2021/05/14 08:06:08;;;;;;;4.38;3.40;;;13.20;88.60;;;;;;3545264;40;20041;-69
2021/05/14 08:08:38;;;;;;;4.65;2.97;;;13.20;87.80;;;;;;3546779;40;20034;-69
2021/05/14 08:11:04;;;;;;;4.07;2.55;;;13.20;87.50;;;;;;3548110;40;20038;-68
2021/05/14 08:13:29;;;;;;;3.85;2.40;;;13.20;88.00;;;;;;3544872;40;20022;-68
2021/05/14 08:15:55;;;;;;;8.13;2.70;;;13.20;88.10;;;;;;3543662;40;20100;-68
2021/05/14 08:18:21;;;;;;;5.18;2.53;;;13.10;87.40;;;;;;3547179;40;20042;-68
2021/05/14 08:20:48;;;;;;;3.78;2.30;;;13.10;87.80;;;;;;3542397;40;20026;-69
2021/05/14 08:23:20;;;;;;;3.45;2.22;;;13.00;88.40;;;;;;3541255;40;20053;-70
2021/05/14 08:25:50;;;;;;;8.93;2.22;;;13.10;88.20;;;;;;3543940;40;20038;-67
2021/05/14 08:28:16;;;;;;;2.70;2.30;;;13.10;88.00;;;;;;3544685;40;20033;-70
2021/05/14 08:30:43;;;;;;;3.85;2.38;;;13.10;88.20;;;;;;3544682;40;20038;-70
2021/05/14 08:33:09;;;;;;;5.30;2.45;;;13.20;88.20;;;;;;3546496;40;20022;-69
2021/05/14 08:35:37;;;;;;;2.75;2.28;;;13.20;87.20;;;;;;3540975;40;20034;-64
2021/05/14 08:38:07;;;;;;;2.67;2.33;;;13.20;88.00;;;;;;3547847;40;20066;-70
2021/05/14 08:40:33;;;;;;;4.82;2.50;;;13.20;87.90;;;;;;3544844;40;20045;-74
2021/05/14 08:43:00;;;;;;;2.22;2.03;;;13.30;87.40;;;;;;3544899;40;20037;-74
2021/05/14 08:45:26;;;;;;;2.97;1.95;;;13.30;87.00;;;;;;3542469;40;20070;-64
2021/05/14 08:47:57;;;;;;;3.17;2.25;;;13.20;87.20;;;;;;3541197;40;20611;-64
2021/05/14 08:50:26;;;;;;;4.15;2.00;;;13.30;87.10;;;;;;3543882;40;20132;-69
2021/05/14 08:52:52;;;;;;;5.47;2.10;;;13.30;87.30;;;;;;3545603;40;20050;-64
2021/05/14 08:55:21;;;;;;;3.88;1.95;;;13.30;86.50;;;;;;3546019;40;20037;-65
2021/05/14 08:57:46;;;;;;;4.95;1.70;;;13.30;85.20;;;;;;3545775;40;20049;-71
2021/05/14 09:00:13;;;;;;;2.45;1.55;;;13.20;85.10;;;;;;3548522;40;20305;-69
2021/05/14 09:02:38;;;;;;;2.47;1.52;;;13.10;85.40;;;;;;3543685;40;20362;-70
2021/05/14 09:05:23;;;;;;;4.05;2.17;;;13.10;86.40;;;;;;3544301;40;20038;-64
2021/05/14 09:07:50;;;;;;;9.13;3.00;;;13.10;86.50;;;;;;3545869;40;20042;-69
2021/05/14 09:10:17;;;;;;;3.03;1.80;;;13.10;86.30;;;;;;3547607;40;20037;-70
2021/05/14 09:12:44;;;;;;;1.80;1.42;;;13.20;85.60;;;;;;3545776;40;20041;-64
2021/05/14 09:15:28;;;;;;;3.17;1.63;;;13.20;85.60;;;;;;3543043;40;20037;-69
2021/05/14 09:18:10;;;;;;;2.35;1.92;;;13.20;86.30;;;;;;3547380;40;20086;-70
2021/05/14 09:20:45;;;;;;;3.67;1.85;;;13.30;86.70;;;;;;3545306;40;20034;-72
2021/05/14 09:23:20;;;;;;;2.63;1.80;;;13.40;86.70;;;;;;3544528;40;20036;-69
2021/05/14 09:25:49;;;;;;;6.15;2.03;;;13.40;86.30;;;;;;3548992;40;20038;-70
2021/05/14 09:28:25;;;;;;;3.60;1.70;;;13.40;86.00;;;;;;3547789;40;20030;-69
2021/05/14 09:31:18;;;;;;;2.72;1.42;;;13.50;86.00;;;;;;3544335;40;20058;-70
2021/05/14 09:33:58;;;;;;;3.70;1.45;;;13.50;86.00;;;;;;3546292;40;20833;-68
2021/05/14 09:36:32;;;;;;;2.92;1.60;;;13.50;85.70;;;;;;3545070;40;20026;-69
2021/05/14 09:39:04;;;;;;;6.63;1.80;;;13.60;85.90;;;;;;3547814;40;20026;-65
2021/05/14 09:41:41;;;;;;;13.70;2.33;;;13.60;86.20;;;;;;3543524;40;20627;-70
2021/05/14 09:44:19;;;;;;;2.95;2.20;;;13.60;86.10;;;;;;3546310;40;20066;-65
2021/05/14 09:46:51;;;;;;;2.17;1.85;;;13.70;85.80;;;;;;3544263;40;20731;-70
2021/05/14 09:49:20;;;;;;;3.15;1.70;;;13.60;85.70;;;;;;3549484;40;20033;-64
2021/05/14 09:51:46;;;;;;;4.55;2.08;;;13.60;85.40;;;;;;3548841;40;20022;-69
2021/05/14 09:54:33;;;;;;;4.53;2.10;;;13.70;85.60;;;;;;3546133;40;20027;-65
2021/05/14 09:57:06;;;;;;;;;;;13.60;84.60;;;;;;3550756;40;20733;-64
2021/05/14 09:59:32;;;;;;;3.42;1.50;;;13.60;85.00;;;;;;3546478;40;20477;-65
2021/05/14 10:01:59;;;;;;;5.15;2.15;;;13.50;85.40;;;;;;3548428;40;20058;-64
2021/05/14 10:04:27;;;;;;;5.13;2.35;;;13.60;84.40;;;;;;3546352;40;20046;-64
2021/05/14 10:06:57;;;;;;;3.85;2.45;;;13.50;85.30;;;;;;3548334;40;20039;-64
2021/05/14 10:09:25;;;;;;;4.47;2.55;;;13.40;86.20;;;;;;3547603;40;20426;-64
2021/05/14 10:11:52;;;;;;;2.63;2.13;;;13.40;87.00;;;;;;3548399;40;20045;-64
2021/05/14 10:14:17;;;;;;;3.55;2.40;;;13.50;86.20;;;;;;3548541;40;22089;-64
2021/05/14 10:16:44;;;;;;;5.90;2.20;;;13.40;85.00;;;;;;3549321;40;20042;-70
2021/05/14 10:19:10;;;;;;;3.63;1.98;;;13.40;85.80;;;;;;3547858;40;20296;-70
2021/05/14 10:21:37;;;;;;;3.17;2.40;;;13.40;86.00;;;;;;3545133;40;20046;-70
2021/05/14 10:24:03;;;;;;;3.65;2.20;;;13.50;86.10;;;;;;3547113;40;20023;-70
2021/05/14 10:26:36;;;;;;;2.65;2.17;;;13.60;86.40;;;;;;3549818;40;20038;-69
2021/05/14 10:29:12;;;;;;;6.78;4.32;;;13.70;86.30;;;;;;3549910;40;20134;-70
2021/05/14 10:31:45;;;;;;;4.05;1.70;;;14.00;85.80;;;;;;3548126;40;20164;-70
2021/05/14 10:34:16;;;;;;;4.82;3.15;;;14.20;83.00;;;;;;3547216;40;20466;-69
2021/05/14 10:36:43;;;;;;;3.42;1.98;;;14.30;83.00;;;;;;3544772;40;20038;-69
2021/05/14 10:39:30;;;;;;;6.53;4.00;;;14.30;80.90;;;;;;3543595;40;20038;-70
2021/05/14 10:42:01;;;;;;;3.03;2.45;;;14.40;81.80;;;;;;3547486;40;20497;-67
2021/05/14 10:44:42;;;;;;;2.78;1.30;;;14.40;81.20;;;;;;3548242;40;20058;-67
2021/05/14 10:47:41;;;;;;;2.05;1.80;;;14.50;78.30;;;;;;3545542;40;20066;-65
2021/05/14 10:50:30;;;;;;;3.28;1.40;;;14.60;80.40;;;;;;3547146;40;20037;-65
2021/05/14 10:53:18;;;;;;;5.80;1.40;;;14.90;79.40;;;;;;3541851;40;20404;-63
2021/05/14 10:55:46;;;;;;;4.13;1.55;;;15.20;81.10;;;;;;3546101;40;20030;-65
2021/05/14 10:58:40;;;;;;;2.83;1.27;;;15.50;77.80;;;;;;3545975;40;20030;-70
2021/05/14 11:01:07;;;;;;;2.05;1.48;;;15.70;77.20;;;;;;3546491;40;20509;-65
2021/05/14 11:03:34;;;;;;;3.40;2.05;;;15.70;76.40;;;;;;3547076;40;20062;-66
2021/05/14 11:06:10;;;;;;;4.93;1.77;;;15.70;75.60;;;;;;3546129;40;20406;-65
2021/05/14 11:08:36;;;;;;;3.55;1.48;;;15.60;76.70;;;;;;3547796;40;20048;-65
2021/05/14 11:11:04;;;;;;;2.30;0.90;;;15.70;77.00;;;;;;3546357;40;20765;-66
2021/05/14 11:13:44;;;;;;;2.30;1.60;;;15.80;74.90;;;;;;3546248;40;20112;-65
2021/05/14 11:16:30;;;;;;;4.13;3.10;;;16.00;75.10;;;;;;3546905;40;20092;-64
2021/05/14 11:18:56;;;;;;;6.22;4.15;;;16.10;73.00;;;;;;3545466;40;20066;-66
2021/05/14 11:21:23;;;;;;;10.60;4.65;;;16.00;72.60;;;;;;3543723;40;20121;-66
2021/05/14 11:24:06;;;;;;;2.95;1.38;;;15.80;70.80;;;;;;3546389;40;20053;-66
2021/05/14 11:26:31;;;;;;;2.38;1.98;;;15.60;72.80;;;;;;3547606;40;20803;-63
2021/05/14 11:28:57;;;;;;;2.10;0.93;;;15.60;74.10;;;;;;3546194;40;20042;-64
2021/05/14 11:31:26;;;;;;;1.83;1.10;;;15.60;73.30;;;;;;3542107;40;20046;-63
2021/05/14 11:33:54;;;;;;;1.20;0.80;;;15.60;72.80;;;;;;3540939;40;20107;-65
2021/05/14 11:36:24;;;;;;;1.90;0.82;;;15.60;73.10;;;;;;3545580;40;20033;-66
2021/05/14 11:38:53;;;;;;;2.13;0.70;;;15.60;73.00;;;;;;3547215;40;20815;-65
2021/05/14 11:41:25;;;;;;;3.80;1.23;;;15.60;72.00;;;;;;3545159;40;20073;-66
2021/05/14 11:44:00;;;;;;;3.58;1.17;;;15.60;73.30;;;;;;3547216;40;20072;-66
2021/05/14 11:46:31;;;;;;;2.67;0.90;;;15.60;73.80;;;;;;3544106;40;20033;-65
2021/05/14 11:49:03;;;;;;;1.60;0.73;;;15.60;74.40;;;;;;3543403;40;20058;-66
2021/05/14 11:51:29;;;;;;;5.13;1.05;;;15.60;74.70;;;;;;3546130;40;20603;-66
2021/05/14 11:53:55;;;;;;;1.08;0.60;;;15.70;74.10;;;;;;3547861;40;20042;-65
2021/05/14 11:56:20;;;;;;;3.28;1.00;;;15.70;72.40;;;;;;3546935;40;20033;-66
2021/05/14 11:58:46;;;;;;;1.98;1.20;;;15.60;73.20;;;;;;3542798;40;20073;-66
2021/05/14 12:01:12;;;;;;;4.28;0.90;;;15.50;73.30;;;;;;3544136;40;20046;-66
2021/05/14 12:03:37;;;;;;;1.58;1.27;;;15.50;74.30;;;;;;3546429;40;20037;-66
2021/05/14 12:06:05;;;;;;;1.02;0.93;;;15.50;74.50;;;;;;3547716;40;20038;-66
2021/05/14 12:08:31;;;;;;;1.05;0.90;;;15.50;74.20;;;;;;3540947;40;20404;-66
2021/05/14 12:11:02;;;;;;;1.30;0.80;;;15.50;73.30;;;;;;3542104;40;20041;-67
2021/05/14 12:13:31;;;;;;;2.30;1.00;;;15.30;72.80;;;;;;3543986;40;20034;-66
2021/05/14 12:16:16;;;;;;;2.63;1.50;;;15.30;73.90;;;;;;3544685;40;20038;-65
2021/05/14 12:18:53;;;;;;;4.80;1.20;;;15.30;75.00;;;;;;3548585;40;20685;-66
2021/05/14 12:21:26;;;;;;;2.03;1.25;;;15.30;75.50;;;;;;3546818;40;20343;-65
2021/05/14 12:23:52;;;;;;;1.85;1.10;;;15.40;76.70;;;;;;3545274;40;20039;-66
2021/05/14 12:26:18;;;;;;;0.77;0.70;;;15.50;74.20;;;;;;3544952;40;20792;-66
2021/05/14 12:28:51;;;;;;;1.63;1.10;;;15.50;72.40;;;;;;3546175;40;20077;-66
2021/05/14 12:31:44;;;;;;;1.67;1.10;;;15.50;74.80;;;;;;3547950;40;20054;-69
2021/05/14 12:34:11;;;;;;;1.50;0.93;;;15.50;74.20;;;;;;3541056;40;20030;-70
2021/05/14 12:36:43;;;;;;;1.10;0.80;;;15.60;73.70;;;;;;3544570;40;20030;-71
2021/05/14 12:39:16;;;;;;;0.93;0.82;;;15.60;73.60;;;;;;3546125;40;20037;-71
2021/05/14 12:41:52;;;;;;;1.60;1.20;;;15.60;73.40;;;;;;3547686;40;20063;-68
2021/05/14 12:44:24;;;;;;;3.38;1.00;;;15.60;73.60;;;;;;3543046;40;20045;-65
2021/05/14 12:47:16;;;;;;;1.42;0.88;;;15.60;73.30;;;;;;3543315;40;20034;-66
2021/05/14 12:49:49;;;;;;;3.58;1.63;;;15.50;72.50;;;;;;3548599;40;20125;-63
2021/05/14 12:52:22;;;;;;;4.30;1.75;;;15.50;75.10;;;;;;3547434;40;20303;-65
2021/05/14 12:54:58;;;;;;;2.00;1.45;;;15.60;75.50;;;;;;3545008;40;20035;-66
2021/05/14 12:57:24;;;;;;;4.47;2.35;;;15.70;74.80;;;;;;3541631;40;20042;-63